Oketo, Kansas
Current Conditions -  °F | °C
As of 5:55 PM on Sunday 23 Nov 2014 (Local Time) from KMYZ Reporting Station
Overcast Overcast  
Wind Chill: 32°   Ceiling: 11000
Heat Index: 41°   Visibility: 10mi
Dew Point: 34°   Wind: 18mph
Humidity: 76%   Direction: 340°NNW
Pressure: 29.55"   Gusts: 25mph
Location:  39.96°N, 96.6°W
Report Text: KMYZ 232355Z AUTO 34016G22KT 10SM OVC110 05/01 A2955 RMK AO2
Loading
Personal Weather Stations






























Interactive Weather Map New forecast layout! Learn more

10-Day Weather Forecast

Advertisements
Track Severe Weather on mobile